Pagrindinis puslapis
METAR-TAF:

METAR-TAF

Oro uostai :

Taos Regional Airport

Taos, Naujoji Meksika, Jungtinės Amerikos Valstijos

platuma: 36-27N, ilguma: 105-40W, Aukštis: 2161 m

Dabartinis oras

Ataskaita buvo paskelbta 1 valandą ir 12 minutes, ne 16:56 UTC
Vėjas 3 kt nuo kintamojo kryptimis
Temperatūra 22°C
Drėgmė 50%
Slėgis 1028 hPa
Matomumas: 16.1 km
Mažai debesys ne aukštis 4200 ft

METAR: KSKX 031656Z AUTO VRB03KT 10SM FEW042 22/11 A3036 RMK AO2 SLP216 T02170111

Laikas: 12:08 (18:08 UTC)


TAF: trūkstamas

Orai ataskaitas ir orų prognozės (METAR, TAF).

turimą stotys yra geltonos ir raudonos taškus žemėlapyje.

Perkelti pele per norėdami pamatyti stoties vardą.

Tada spustelėkite, norėdami matyti oro stebėjimo ir prognozės.

Norėdami pakeisti žemėlapį: spustelėkite ant žalios mygtukų su juodo kryžiaus žemyn,; žalią mygtuką su brūkšneliu, jei norite nutolinti; arba žalių rodyklių gretimoms žemėlapius.


METAR-TAF: